Terminal Aerodrome Forecast
Issued by NWS

Home | Current Version | Previous Version | Graphics & Text | Print | Product List | Glossary On
Versions: 1 2 3 4 5 6 7 8 9 10 11 12
000
FTUS43 KGRB 251100
TAFATW
TAF
KATW 251121Z 2512/2612 06008KT P6SM OVC060
     FM251500 06009G18KT P6SM BKN080
     FM251800 05015G22KT P6SM SCT080
     FM252300 04010KT P6SM SKC=

USA.gov is the U.S. government's official web portal to all federal, state and local government web resources and services.